JST223 YSSY-NZQN
Flight info
| Callsign | JST223 |
|---|---|
| Flight time | N/A |
| Altitude | 35000 |
| Route | OPTIC Y84 TONIM P766 ADKOS |
| Aircraft | A320/M-SDE3FGHIRWY/LB1 |
Departure
| Time | 2026-05-05 03:19 |
|---|---|
| Airport | Sydney Kingsford Smith International Airport (YSSY) |
Arrival
| Time | N/A |
|---|---|
| Airport | Queenstown Airport (NZQN) |
| Time | Latitude | Longitude | Altitude | Speed | Heading |
|---|---|---|---|---|---|
| 2026-05-05 02:51 | -33.93524 | 151.17767 | 30 ft | 0 kts | 279° |
| 2026-05-05 02:57 | -33.93524 | 151.17766 | 30 ft | 0 kts | 279° |
| 2026-05-05 03:06 | -33.93524 | 151.17765 | 30 ft | 0 kts | 279° |
| 2026-05-05 03:06 | -33.93524 | 151.17769 | 30 ft | 2 kts | 279° |
| 2026-05-05 03:07 | -33.93527 | 151.17788 | 30 ft | 2 kts | 248° |
| 2026-05-05 03:07 | -33.93518 | 151.17805 | 29 ft | 2 kts | 226° |
| 2026-05-05 03:07 | -33.93510 | 151.17813 | 29 ft | 0 kts | 179° |
| 2026-05-05 03:11 | -33.93535 | 151.17822 | 30 ft | 16 kts | 167° |
| 2026-05-05 03:11 | -33.93671 | 151.17810 | 28 ft | 13 kts | 189° |
| 2026-05-05 03:11 | -33.93781 | 151.17771 | 30 ft | 21 kts | 197° |
| 2026-05-05 03:11 | -33.93920 | 151.17784 | 30 ft | 25 kts | 165° |
| 2026-05-05 03:12 | -33.94125 | 151.17835 | 30 ft | 35 kts | 171° |
| 2026-05-05 03:12 | -33.94384 | 151.17904 | 30 ft | 33 kts | 167° |
| 2026-05-05 03:12 | -33.94563 | 151.17892 | 30 ft | 23 kts | 168° |
| 2026-05-05 03:12 | -33.94734 | 151.17936 | 30 ft | 27 kts | 168° |
| 2026-05-05 03:13 | -33.94920 | 151.17984 | 30 ft | 21 kts | 167° |
| 2026-05-05 03:13 | -33.94984 | 151.18001 | 31 ft | 3 kts | 167° |
| 2026-05-05 03:13 | -33.95078 | 151.18030 | 31 ft | 19 kts | 150° |
| 2026-05-05 03:13 | -33.95088 | 151.18154 | 31 ft | 16 kts | 80° |
| 2026-05-05 03:14 | -33.95066 | 151.18307 | 31 ft | 21 kts | 80° |
| 2026-05-05 03:14 | -33.95057 | 151.18362 | 31 ft | 5 kts | 79° |
| 2026-05-05 03:14 | -33.95039 | 151.18441 | 31 ft | 0 kts | 80° |
| 2026-05-05 03:14 | -33.95035 | 151.18463 | 31 ft | 9 kts | 79° |
| 2026-05-05 03:15 | -33.95022 | 151.18536 | 30 ft | 0 kts | 77° |
| 2026-05-05 03:16 | -33.95003 | 151.18636 | 30 ft | 31 kts | 77° |
| 2026-05-05 03:16 | -33.94990 | 151.18830 | 29 ft | 13 kts | 144° |
| 2026-05-05 03:16 | -33.95018 | 151.18842 | 27 ft | 0 kts | 166° |
| 2026-05-05 03:18 | -33.95056 | 151.18853 | 26 ft | 31 kts | 167° |
| 2026-05-05 03:19 | -33.96718 | 151.19282 | 27 ft | 190 kts | 168° |
| 2026-05-05 03:19 | -33.97955 | 151.19586 | 1209 ft | 159 kts | 173° |
| 2026-05-05 03:19 | -33.98933 | 151.20030 | 2371 ft | 157 kts | 141° |
| 2026-05-05 03:20 | -33.99579 | 151.21188 | 3074 ft | 179 kts | 123° |
| 2026-05-05 03:20 | -34.00201 | 151.22613 | 3701 ft | 204 kts | 122° |
| 2026-05-05 03:20 | -34.00927 | 151.24199 | 4349 ft | 225 kts | 129° |
| 2026-05-05 03:20 | -34.02038 | 151.25639 | 5046 ft | 247 kts | 141° |
| 2026-05-05 03:21 | -34.03391 | 151.27066 | 5899 ft | 267 kts | 143° |
| 2026-05-05 03:21 | -34.04853 | 151.28526 | 6961 ft | 278 kts | 143° |
| 2026-05-05 03:21 | -34.06383 | 151.30024 | 8023 ft | 287 kts | 144° |
| 2026-05-05 03:21 | -34.07961 | 151.31561 | 9097 ft | 296 kts | 144° |
| 2026-05-05 03:22 | -34.09590 | 151.33148 | 10147 ft | 305 kts | 144° |
| 2026-05-05 03:22 | -34.11262 | 151.34780 | 11111 ft | 313 kts | 144° |
| 2026-05-05 03:22 | -34.12947 | 151.36481 | 12103 ft | 320 kts | 139° |
| 2026-05-05 03:22 | -34.14407 | 151.38541 | 12892 ft | 338 kts | 126° |
| 2026-05-05 03:23 | -34.15725 | 151.41067 | 13329 ft | 363 kts | 123° |
| 2026-05-05 03:23 | -34.17077 | 151.43719 | 13698 ft | 387 kts | 122° |
| 2026-05-05 03:23 | -34.18514 | 151.46541 | 14294 ft | 400 kts | 123° |
| 2026-05-05 03:23 | -34.19987 | 151.49426 | 15089 ft | 405 kts | 123° |
| 2026-05-05 03:24 | -34.21479 | 151.52350 | 15831 ft | 411 kts | 123° |
| 2026-05-05 03:24 | -34.22994 | 151.55312 | 16621 ft | 416 kts | 123° |
| 2026-05-05 03:24 | -34.24523 | 151.58301 | 17452 ft | 420 kts | 123° |
| 2026-05-05 03:24 | -34.26046 | 151.61272 | 18252 ft | 424 kts | 123° |
| 2026-05-05 03:25 | -34.27608 | 151.64321 | 18989 ft | 428 kts | 123° |
| 2026-05-05 03:25 | -34.29184 | 151.67402 | 19693 ft | 434 kts | 123° |
| 2026-05-05 03:25 | -34.30780 | 151.70529 | 20389 ft | 439 kts | 123° |
| 2026-05-05 03:25 | -34.32392 | 151.73689 | 21053 ft | 445 kts | 123° |
| 2026-05-05 03:26 | -34.34026 | 151.76897 | 21691 ft | 450 kts | 123° |
| 2026-05-05 03:26 | -34.35683 | 151.80144 | 22314 ft | 455 kts | 123° |
| 2026-05-05 03:26 | -34.37355 | 151.83421 | 22917 ft | 460 kts | 123° |
| 2026-05-05 03:26 | -34.39026 | 151.86708 | 23505 ft | 465 kts | 123° |
| 2026-05-05 03:27 | -34.40858 | 151.89949 | 23999 ft | 468 kts | 130° |
| 2026-05-05 03:27 | -34.42941 | 151.93008 | 24456 ft | 473 kts | 132° |
| 2026-05-05 03:27 | -34.44342 | 151.95046 | 24756 ft | 476 kts | 132° |
| 2026-05-05 03:27 | -34.46478 | 151.98151 | 25192 ft | 481 kts | 131° |
| 2026-05-05 03:28 | -34.49364 | 152.02351 | 25781 ft | 488 kts | 131° |
| 2026-05-05 03:28 | -34.51541 | 152.05531 | 26231 ft | 494 kts | 131° |
| 2026-05-05 03:28 | -34.53718 | 152.08721 | 26678 ft | 499 kts | 131° |
| 2026-05-05 03:28 | -34.55945 | 152.11982 | 27122 ft | 504 kts | 131° |
| 2026-05-05 03:29 | -34.57467 | 152.14209 | 27419 ft | 507 kts | 131° |
| 2026-05-05 03:29 | -34.59731 | 152.17525 | 27848 ft | 512 kts | 131° |
| 2026-05-05 03:29 | -34.62751 | 152.21961 | 28524 ft | 517 kts | 131° |
| 2026-05-05 03:29 | -34.64270 | 152.24196 | 28828 ft | 519 kts | 131° |
| 2026-05-05 03:30 | -34.66583 | 152.27597 | 29273 ft | 524 kts | 131° |
| 2026-05-05 03:30 | -34.68918 | 152.31035 | 29691 ft | 529 kts | 131° |
| 2026-05-05 03:30 | -34.71262 | 152.34489 | 30228 ft | 531 kts | 131° |
| 2026-05-05 03:30 | -34.73613 | 152.37958 | 30747 ft | 532 kts | 131° |
| 2026-05-05 03:31 | -34.75971 | 152.41442 | 31263 ft | 533 kts | 131° |
| 2026-05-05 03:31 | -34.78332 | 152.44931 | 31784 ft | 534 kts | 131° |
| 2026-05-05 03:31 | -34.80693 | 152.48426 | 32306 ft | 535 kts | 131° |
| 2026-05-05 03:31 | -34.83058 | 152.51931 | 32844 ft | 536 kts | 131° |
| 2026-05-05 03:32 | -34.85403 | 152.55402 | 33373 ft | 538 kts | 131° |
| 2026-05-05 03:32 | -34.87789 | 152.58934 | 33914 ft | 539 kts | 131° |
| 2026-05-05 03:32 | -34.90167 | 152.62464 | 34414 ft | 540 kts | 131° |